createdAt,value
2018-06-09T00:01:57.529Z,23.70
2018-06-09T00:04:26.221Z,23.70
2018-06-09T00:09:23.310Z,23.70
2018-06-09T00:11:52.410Z,23.70
2018-06-09T00:14:21.122Z,23.70
2018-06-09T00:16:50.421Z,23.70
2018-06-09T00:19:19.107Z,23.70
2018-06-09T00:21:47.819Z,23.60
2018-06-09T00:24:16.600Z,23.60
2018-06-09T00:26:45.304Z,23.60
2018-06-09T00:29:14.019Z,23.50
2018-06-09T00:31:42.806Z,23.50
2018-06-09T00:34:11.553Z,23.50
2018-06-09T00:36:40.270Z,23.50
2018-06-09T00:39:08.981Z,23.40
2018-06-09T00:41:37.653Z,23.40
2018-06-09T00:44:06.445Z,23.40
2018-06-09T00:46:35.107Z,23.40
2018-06-09T00:49:03.886Z,23.40
2018-06-09T00:51:32.608Z,23.40
2018-06-09T00:54:01.290Z,23.40
2018-06-09T00:56:41.873Z,23.40
2018-06-09T00:59:10.693Z,23.30
2018-06-09T01:01:39.392Z,23.30
2018-06-09T01:04:08.129Z,23.30
2018-06-09T01:09:07.597Z,23.30
2018-06-09T01:11:36.529Z,23.20
2018-06-09T01:14:05.308Z,23.20
2018-06-09T01:19:02.458Z,23.10
2018-06-09T01:21:31.182Z,23.10
2018-06-09T01:23:59.959Z,23.10
2018-06-09T01:28:57.134Z,23.10
2018-06-09T01:31:25.876Z,23.00
2018-06-09T01:33:54.569Z,23.00
2018-06-09T01:36:23.236Z,23.00
2018-06-09T01:38:51.990Z,23.00
2018-06-09T01:41:20.700Z,22.90
2018-06-09T01:43:49.405Z,22.90
2018-06-09T01:46:18.097Z,22.90
2018-06-09T01:48:46.797Z,22.90
2018-06-09T01:51:15.513Z,22.90
2018-06-09T01:53:44.286Z,22.90
2018-06-09T01:56:12.997Z,22.90
2018-06-09T01:58:41.683Z,22.90
2018-06-09T02:01:10.395Z,22.90
2018-06-09T02:03:39.043Z,22.90
2018-06-09T02:06:07.766Z,22.90
2018-06-09T02:08:36.453Z,22.80
2018-06-09T02:11:05.169Z,22.80
2018-06-09T02:13:34.825Z,22.80
2018-06-09T02:16:03.590Z,22.80
2018-06-09T02:18:32.248Z,22.70
2018-06-09T02:21:00.957Z,22.70
2018-06-09T02:23:30.138Z,22.70
2018-06-09T02:25:58.787Z,22.70
2018-06-09T02:28:27.540Z,22.70
2018-06-09T02:30:56.214Z,22.70
2018-06-09T02:33:24.923Z,22.60
2018-06-09T02:35:53.607Z,22.70
2018-06-09T02:38:22.323Z,22.70
2018-06-09T02:40:51.097Z,22.70
2018-06-09T02:45:48.215Z,22.70
2018-06-09T02:50:45.411Z,22.60
2018-06-09T02:53:14.105Z,22.60
2018-06-09T02:55:42.817Z,22.60
2018-06-09T02:58:18.285Z,22.60
2018-06-09T03:00:47.017Z,22.60
2018-06-09T03:03:15.757Z,22.60
2018-06-09T03:05:44.449Z,22.60
2018-06-09T03:08:13.177Z,22.60
2018-06-09T03:10:41.865Z,22.60
2018-06-09T03:13:10.627Z,22.60
2018-06-09T03:18:07.753Z,22.60
2018-06-09T03:20:36.505Z,22.60
2018-06-09T03:23:05.210Z,22.60
2018-06-09T03:25:33.941Z,22.70
2018-06-09T03:28:02.666Z,22.70
2018-06-09T03:30:31.417Z,22.70
2018-06-09T03:33:00.119Z,22.80
2018-06-09T03:37:57.161Z,22.80
2018-06-09T03:40:25.870Z,22.80
2018-06-09T03:42:54.673Z,22.90
2018-06-09T03:45:23.311Z,23.00
2018-06-09T03:47:52.027Z,23.00
2018-06-09T03:52:49.189Z,23.00
2018-06-09T03:57:46.294Z,23.10
2018-06-09T04:00:15.871Z,23.10
2018-06-09T04:02:44.530Z,23.10
2018-06-09T04:05:13.269Z,23.00
2018-06-09T04:07:41.970Z,23.00
2018-06-09T04:10:10.662Z,23.10
2018-06-09T04:12:39.394Z,23.10
2018-06-09T04:15:08.181Z,23.00
2018-06-09T04:17:36.852Z,23.00
2018-06-09T04:20:05.599Z,23.00
2018-06-09T04:22:34.277Z,23.00
2018-06-09T04:25:02.990Z,23.00
2018-06-09T04:27:31.977Z,23.00
2018-06-09T04:30:00.673Z,23.00
2018-06-09T04:32:29.413Z,23.00
2018-06-09T04:34:58.057Z,23.10
2018-06-09T04:37:26.805Z,23.10
2018-06-09T04:39:56.469Z,23.20
2018-06-09T04:42:25.135Z,23.20
2018-06-09T04:44:53.854Z,23.30
2018-06-09T04:49:51.019Z,23.40
2018-06-09T04:52:19.689Z,23.40
2018-06-09T04:54:48.431Z,23.50
2018-06-09T04:57:17.204Z,23.50
2018-06-09T04:59:45.972Z,23.60
2018-06-09T05:04:43.100Z,23.80
2018-06-09T05:07:11.796Z,23.80
2018-06-09T05:09:40.562Z,23.90
2018-06-09T05:12:09.255Z,24.20
2018-06-09T05:14:38.010Z,24.30
2018-06-09T05:17:06.682Z,24.50
2018-06-09T05:19:35.365Z,24.60
2018-06-09T05:22:04.260Z,24.90
2018-06-09T05:24:32.946Z,25.40
2018-06-09T05:27:01.619Z,25.70
2018-06-09T05:34:28.125Z,29.00
2018-06-09T05:36:56.849Z,29.20
2018-06-09T05:39:25.554Z,30.50
2018-06-09T05:41:54.361Z,32.00
2018-06-09T05:44:23.697Z,32.70
2018-06-09T05:46:52.400Z,33.70
2018-06-09T05:49:21.072Z,34.00
2018-06-09T05:51:49.778Z,34.20
2018-06-09T05:54:18.489Z,34.40
2018-06-09T05:59:15.577Z,35.10
2018-06-09T06:01:44.278Z,35.70
2018-06-09T06:04:13.356Z,36.10
2018-06-09T06:06:42.073Z,36.50
2018-06-09T06:09:10.746Z,37.20
2018-06-09T06:11:39.439Z,37.40
2018-06-09T06:14:08.121Z,37.70
2018-06-09T06:16:36.804Z,38.40
2018-06-09T06:19:05.521Z,38.60
2018-06-09T06:21:34.239Z,39.10
2018-06-09T06:26:31.267Z,40.10
2018-06-09T06:28:59.961Z,39.80
2018-06-09T06:31:28.637Z,38.60
2018-06-09T06:33:57.346Z,36.30
2018-06-09T06:36:26.010Z,36.20
2018-06-09T06:38:54.672Z,36.20
2018-06-09T06:41:23.486Z,36.50
2018-06-09T06:43:52.527Z,36.50
2018-06-09T06:46:21.221Z,36.80
2018-06-09T06:48:49.894Z,36.30
2018-06-09T06:53:46.940Z,35.70
2018-06-09T06:56:15.678Z,35.80
2018-06-09T06:58:44.358Z,35.60
2018-06-09T07:01:13.013Z,35.50
2018-06-09T07:03:41.706Z,35.30
2018-06-09T07:08:38.848Z,33.90
2018-06-09T07:11:07.569Z,33.60
2018-06-09T07:16:04.643Z,32.00
2018-06-09T07:18:33.325Z,31.80
2018-06-09T07:21:02.003Z,31.70
2018-06-09T07:28:27.456Z,31.20
2018-06-09T07:30:56.153Z,31.10
2018-06-09T07:33:24.859Z,31.00
2018-06-09T07:35:53.596Z,30.90
2018-06-09T07:40:50.720Z,30.70
2018-06-09T07:43:19.426Z,30.70
2018-06-09T07:45:48.089Z,30.70
2018-06-09T07:48:16.810Z,30.60
2018-06-09T07:50:45.476Z,30.50
2018-06-09T07:53:14.154Z,30.50
2018-06-09T07:55:42.848Z,30.40
2018-06-09T07:58:11.520Z,30.40
2018-06-09T08:00:40.246Z,30.30
2018-06-09T08:08:05.721Z,30.40
2018-06-09T08:10:34.415Z,30.50
2018-06-09T08:13:03.210Z,30.60
2018-06-09T08:15:31.890Z,30.70
2018-06-09T08:20:29.037Z,31.00
2018-06-09T08:22:57.750Z,31.10
2018-06-09T08:25:26.509Z,31.20
2018-06-09T08:27:55.172Z,31.40
2018-06-09T08:30:23.835Z,31.60
2018-06-09T08:32:52.527Z,32.10
2018-06-09T08:35:21.254Z,32.60
2018-06-09T08:37:49.979Z,32.80
2018-06-09T08:40:18.649Z,33.40
2018-06-09T08:42:47.331Z,34.30
2018-06-09T08:45:16.006Z,35.70
2018-06-09T08:47:44.708Z,35.70
2018-06-09T08:50:13.374Z,37.70
2018-06-09T08:52:42.089Z,39.10
2018-06-09T08:55:10.722Z,39.10
2018-06-09T09:00:08.198Z,40.30
2018-06-09T09:05:05.242Z,41.10
2018-06-09T09:07:33.966Z,41.50
2018-06-09T09:10:02.600Z,42.30
2018-06-09T09:12:31.279Z,43.40
2018-06-09T09:14:59.975Z,42.70
2018-06-09T09:17:28.769Z,42.30
2018-06-09T09:19:57.425Z,42.60
2018-06-09T09:22:26.143Z,43.20
2018-06-09T09:24:54.842Z,43.10
2018-06-09T09:27:23.657Z,43.00
2018-06-09T09:29:52.367Z,42.90
2018-06-09T09:32:21.164Z,42.80
2018-06-09T09:34:49.913Z,42.50
2018-06-09T09:37:18.546Z,43.00
2018-06-09T09:39:47.240Z,43.70
2018-06-09T09:42:16.005Z,44.60
2018-06-09T09:44:44.700Z,44.60
2018-06-09T09:47:13.382Z,44.90
2018-06-09T09:49:43.094Z,45.30
2018-06-09T09:52:11.780Z,45.60
2018-06-09T09:54:40.472Z,45.80
2018-06-09T09:57:09.339Z,46.00
2018-06-09T09:59:38.013Z,46.00
2018-06-09T10:02:06.802Z,45.90
2018-06-09T10:04:35.550Z,46.00
2018-06-09T10:07:04.559Z,44.10
2018-06-09T10:09:33.376Z,46.20
2018-06-09T10:12:02.090Z,46.20
2018-06-09T10:14:30.884Z,46.00
2018-06-09T10:16:59.490Z,46.20
2018-06-09T10:19:28.230Z,46.90
2018-06-09T10:21:56.973Z,47.20
2018-06-09T10:24:25.731Z,47.50
2018-06-09T10:26:54.362Z,47.50
2018-06-09T10:31:51.488Z,47.40
2018-06-09T10:34:20.153Z,47.10
2018-06-09T10:36:48.836Z,45.50
2018-06-09T10:39:17.529Z,45.10
2018-06-09T10:41:46.217Z,45.10
2018-06-09T10:44:14.894Z,44.70
2018-06-09T10:46:43.665Z,44.70
2018-06-09T10:49:12.341Z,44.80
2018-06-09T10:54:09.499Z,44.60
2018-06-09T11:01:35.600Z,43.90
2018-06-09T11:04:04.339Z,42.90
2018-06-09T11:06:33.150Z,42.60
2018-06-09T11:09:02.778Z,42.50
2018-06-09T11:11:31.465Z,42.70
2018-06-09T11:14:00.186Z,42.70
2018-06-09T11:16:28.880Z,42.70
2018-06-09T11:21:25.988Z,42.40
2018-06-09T11:26:23.153Z,42.00
2018-06-09T11:28:51.807Z,41.70
2018-06-09T11:31:20.562Z,41.90
2018-06-09T11:33:53.115Z,41.80
2018-06-09T11:38:50.177Z,41.00
2018-06-09T11:41:18.861Z,40.90
2018-06-09T11:43:47.564Z,40.90
2018-06-09T11:46:16.230Z,40.20
2018-06-09T11:48:44.909Z,40.10
2018-06-09T11:51:13.632Z,39.90
2018-06-09T11:53:42.346Z,39.90
2018-06-09T11:56:11.024Z,39.80
2018-06-09T11:58:40.456Z,39.70
2018-06-09T12:01:10.035Z,39.80
2018-06-09T12:06:07.127Z,38.70
2018-06-09T12:11:04.342Z,38.50
2018-06-09T12:13:32.953Z,38.30
2018-06-09T12:16:01.597Z,38.30
2018-06-09T12:18:30.347Z,38.60
2018-06-09T12:21:00.293Z,38.80
2018-06-09T12:23:29.033Z,38.90
2018-06-09T12:25:57.737Z,38.50
2018-06-09T12:28:26.465Z,38.50
2018-06-09T12:30:55.175Z,38.40
2018-06-09T12:33:23.860Z,38.30
2018-06-09T12:35:52.572Z,36.70
2018-06-09T12:38:21.266Z,37.40
2018-06-09T12:40:49.925Z,37.30
2018-06-09T12:43:18.674Z,37.40
2018-06-09T12:45:47.365Z,37.30
2018-06-09T12:48:16.074Z,37.20
2018-06-09T12:50:45.981Z,37.00
2018-06-09T12:55:43.075Z,37.30
2018-06-09T12:58:11.730Z,37.40
2018-06-09T13:00:40.426Z,37.60
2018-06-09T13:03:09.797Z,37.60
2018-06-09T13:05:38.465Z,37.30
2018-06-09T13:10:35.625Z,36.80
2018-06-09T13:13:05.162Z,36.80
2018-06-09T13:15:33.850Z,37.00
2018-06-09T13:18:02.611Z,37.20
2018-06-09T13:20:32.044Z,37.20
2018-06-09T13:23:00.779Z,37.00
2018-06-09T13:25:29.416Z,36.70
2018-06-09T13:27:58.079Z,36.60
2018-06-09T13:32:55.252Z,36.20
2018-06-09T13:35:23.993Z,36.00
2018-06-09T13:37:52.726Z,35.80
2018-06-09T13:42:49.955Z,35.40
2018-06-09T13:45:18.681Z,35.40
2018-06-09T13:47:47.341Z,35.50
2018-06-09T13:50:16.003Z,35.50
2018-06-09T13:52:44.719Z,35.50
2018-06-09T13:55:13.414Z,35.40
2018-06-09T14:02:38.989Z,35.20
2018-06-09T14:05:07.731Z,35.00
2018-06-09T14:07:36.585Z,35.00
2018-06-09T14:10:05.378Z,35.10
2018-06-09T14:12:34.729Z,35.10
2018-06-09T14:20:00.469Z,35.00
2018-06-09T14:22:29.146Z,35.00
2018-06-09T14:24:57.827Z,34.90
2018-06-09T14:27:26.484Z,34.80
2018-06-09T14:29:55.130Z,34.60
2018-06-09T14:32:23.803Z,34.60
2018-06-09T14:37:21.091Z,34.40
2018-06-09T14:39:49.712Z,34.30
2018-06-09T14:42:18.398Z,34.30
2018-06-09T14:44:47.105Z,34.50
2018-06-09T14:47:15.787Z,34.60
2018-06-09T14:49:44.437Z,34.80
2018-06-09T14:52:13.162Z,34.90
2018-06-09T14:54:41.837Z,35.00
2018-06-09T14:57:10.603Z,35.00
2018-06-09T14:59:39.390Z,35.00
2018-06-09T15:02:08.073Z,34.90
2018-06-09T15:04:36.839Z,34.70
2018-06-09T15:07:05.549Z,34.60
2018-06-09T15:09:34.217Z,34.40
2018-06-09T15:12:03.029Z,34.40
2018-06-09T15:14:31.706Z,34.20
2018-06-09T15:17:00.410Z,34.20
2018-06-09T15:19:29.724Z,33.90
2018-06-09T15:21:58.463Z,33.70
2018-06-09T15:24:27.129Z,33.70
2018-06-09T15:26:56.583Z,33.50
2018-06-09T15:29:25.273Z,33.30
2018-06-09T15:31:53.945Z,33.30
2018-06-09T15:34:22.626Z,33.20
2018-06-09T15:36:51.295Z,33.10
2018-06-09T15:39:20.013Z,33.00
2018-06-09T15:41:48.690Z,32.90
2018-06-09T15:44:18.135Z,32.70
2018-06-09T15:46:46.858Z,32.70
2018-06-09T15:49:15.503Z,32.70
2018-06-09T15:51:44.157Z,32.60
2018-06-09T15:54:12.874Z,32.60
2018-06-09T15:56:41.559Z,32.50
2018-06-09T15:59:10.242Z,32.40
2018-06-09T16:01:38.934Z,32.20
2018-06-09T16:04:07.607Z,31.90
2018-06-09T16:06:36.269Z,31.80
2018-06-09T16:09:07.151Z,31.70
2018-06-09T16:14:04.149Z,31.70
2018-06-09T16:16:32.858Z,31.60
2018-06-09T16:19:01.724Z,31.60
2018-06-09T16:21:30.413Z,31.50
2018-06-09T16:23:59.084Z,31.30
2018-06-09T16:28:56.230Z,31.10
2018-06-09T16:31:24.926Z,31.00
2018-06-09T16:33:53.581Z,30.90
2018-06-09T16:36:22.308Z,31.00
2018-06-09T16:38:51.107Z,30.80
2018-06-09T16:41:19.750Z,30.60
2018-06-09T16:43:48.582Z,30.50
2018-06-09T16:46:17.232Z,30.50
2018-06-09T16:48:45.918Z,30.50
2018-06-09T16:51:14.641Z,30.40
2018-06-09T16:53:43.405Z,30.40
2018-06-09T16:56:12.090Z,30.40
2018-06-09T16:58:40.770Z,30.30
2018-06-09T17:01:09.529Z,30.30
2018-06-09T17:03:38.169Z,30.20
2018-06-09T17:06:06.834Z,30.20
2018-06-09T17:08:35.599Z,30.10
2018-06-09T17:11:04.290Z,30.10
2018-06-09T17:13:33.006Z,30.00
2018-06-09T17:18:30.058Z,29.90
2018-06-09T17:20:58.777Z,29.90
2018-06-09T17:23:28.283Z,29.90
2018-06-09T17:25:56.986Z,29.90
2018-06-09T17:28:25.650Z,30.00
2018-06-09T17:30:54.357Z,30.00
2018-06-09T17:33:23.050Z,30.00
2018-06-09T17:35:51.765Z,30.00
2018-06-09T17:38:20.494Z,30.00
2018-06-09T17:40:49.140Z,30.00
2018-06-09T17:43:17.865Z,30.10
2018-06-09T17:45:46.583Z,30.00
2018-06-09T17:48:15.213Z,30.10
2018-06-09T17:50:43.883Z,30.00
2018-06-09T17:53:12.625Z,30.00
2018-06-09T17:55:41.285Z,30.00
2018-06-09T18:00:38.372Z,29.90
2018-06-09T18:03:07.205Z,29.80
2018-06-09T18:05:35.892Z,29.80
2018-06-09T18:08:04.602Z,29.80
2018-06-09T18:10:33.268Z,29.80
2018-06-09T18:13:01.939Z,29.80
2018-06-09T18:15:30.655Z,29.60
2018-06-09T18:17:59.324Z,29.50
2018-06-09T18:20:28.014Z,29.40
2018-06-09T18:22:56.711Z,29.30
2018-06-09T18:25:25.334Z,29.20
2018-06-09T18:27:54.025Z,29.10
2018-06-09T18:32:51.077Z,29.00
2018-06-09T18:35:19.863Z,29.00
2018-06-09T18:37:48.553Z,29.00
2018-06-09T18:42:46.361Z,29.00
2018-06-09T18:45:15.076Z,29.00
2018-06-09T18:47:43.751Z,28.90
2018-06-09T18:50:12.393Z,29.00
2018-06-09T18:52:41.113Z,28.90
2018-06-09T18:55:09.931Z,28.90
2018-06-09T18:57:38.641Z,28.90
2018-06-09T19:00:07.335Z,28.90
2018-06-09T19:05:04.597Z,28.80
2018-06-09T19:07:33.267Z,28.80
2018-06-09T19:10:01.973Z,28.80
2018-06-09T19:12:30.623Z,28.70
2018-06-09T19:14:59.677Z,28.60
2018-06-09T19:17:28.377Z,28.60
2018-06-09T19:19:57.135Z,28.50
2018-06-09T19:22:26.649Z,28.40
2018-06-09T19:24:55.330Z,28.40
2018-06-09T19:27:24.023Z,28.30
2018-06-09T19:32:21.075Z,28.20
2018-06-09T19:39:46.525Z,28.20
2018-06-09T19:42:15.220Z,28.10
2018-06-09T19:44:43.901Z,28.00
2018-06-09T19:47:12.561Z,28.00
2018-06-09T19:49:41.303Z,28.00
2018-06-09T19:52:09.969Z,27.90
2018-06-09T19:54:38.667Z,27.90
2018-06-09T19:57:07.355Z,27.80
2018-06-09T19:59:36.037Z,27.70
2018-06-09T20:02:04.741Z,27.70
2018-06-09T20:04:33.447Z,27.70
2018-06-09T20:07:02.130Z,27.50
2018-06-09T20:09:30.838Z,27.50
2018-06-09T20:14:27.928Z,27.40
2018-06-09T20:16:56.618Z,27.30
2018-06-09T20:19:25.354Z,27.30
2018-06-09T20:21:54.024Z,27.30
2018-06-09T20:24:22.789Z,27.20
2018-06-09T20:26:51.448Z,27.20
2018-06-09T20:29:20.207Z,27.20
2018-06-09T20:34:17.305Z,27.10
2018-06-09T20:36:45.950Z,27.10
2018-06-09T20:39:14.669Z,27.00
2018-06-09T20:44:11.806Z,27.00
2018-06-09T20:46:40.473Z,27.00
2018-06-09T20:49:09.138Z,26.90
2018-06-09T20:51:37.849Z,26.80
2018-06-09T20:54:06.528Z,26.80
2018-06-09T20:56:35.221Z,26.80
2018-06-09T20:59:03.904Z,26.80
2018-06-09T21:01:32.581Z,26.80
2018-06-09T21:04:01.543Z,26.70
2018-06-09T21:06:30.262Z,26.80
2018-06-09T21:08:58.908Z,26.70
2018-06-09T21:11:27.613Z,26.70
2018-06-09T21:13:56.362Z,26.70
2018-06-09T21:16:25.018Z,26.60
2018-06-09T21:18:53.694Z,26.60
2018-06-09T21:21:22.401Z,26.60
2018-06-09T21:23:51.070Z,26.60
2018-06-09T21:26:19.738Z,26.60
2018-06-09T21:28:53.685Z,26.50
2018-06-09T21:31:27.797Z,26.50
2018-06-09T21:34:07.963Z,26.40
2018-06-09T21:36:42.102Z,26.40
2018-06-09T21:39:16.269Z,26.50
2018-06-09T21:41:52.114Z,26.40
2018-06-09T21:44:26.322Z,26.40
2018-06-09T21:46:55.028Z,26.30
2018-06-09T21:49:23.705Z,26.30
2018-06-09T21:51:52.413Z,26.30
2018-06-09T21:54:21.173Z,26.30
2018-06-09T21:56:49.821Z,26.30
2018-06-09T21:59:18.517Z,26.20
2018-06-09T22:01:47.166Z,26.20
2018-06-09T22:04:16.685Z,26.20
2018-06-09T22:09:13.852Z,26.20
2018-06-09T22:11:42.525Z,26.10
2018-06-09T22:14:11.834Z,26.10
2018-06-09T22:19:08.966Z,26.00
2018-06-09T22:21:37.664Z,26.00
2018-06-09T22:24:06.345Z,26.00
2018-06-09T22:26:35.062Z,25.90
2018-06-09T22:31:32.196Z,25.90
2018-06-09T22:34:00.889Z,25.90
2018-06-09T22:36:29.687Z,25.90
2018-06-09T22:38:58.419Z,25.80
2018-06-09T22:41:27.097Z,25.80
2018-06-09T22:43:55.862Z,25.80
2018-06-09T22:46:24.487Z,25.70
2018-06-09T22:48:53.195Z,25.70
2018-06-09T22:51:21.883Z,25.70
2018-06-09T22:53:50.565Z,25.70
2018-06-09T22:56:19.318Z,25.60
2018-06-09T22:58:48.001Z,25.60
2018-06-09T23:01:16.746Z,25.60
2018-06-09T23:03:45.450Z,25.50
2018-06-09T23:08:42.675Z,25.50
2018-06-09T23:11:11.525Z,25.50
2018-06-09T23:13:40.147Z,25.40
2018-06-09T23:16:08.848Z,25.30
2018-06-09T23:18:37.544Z,25.30
2018-06-09T23:21:06.391Z,25.20
2018-06-09T23:23:35.113Z,25.10
2018-06-09T23:26:03.814Z,25.00
2018-06-09T23:28:32.473Z,25.00
2018-06-09T23:31:01.211Z,24.90
2018-06-09T23:33:29.914Z,24.90
2018-06-09T23:35:58.629Z,24.90
2018-06-09T23:38:27.278Z,24.90
2018-06-09T23:40:55.976Z,24.90
2018-06-09T23:43:24.650Z,24.80
2018-06-09T23:45:53.362Z,24.90
2018-06-09T23:48:22.047Z,24.80
2018-06-09T23:50:50.776Z,24.80
2018-06-09T23:53:19.437Z,24.80
2018-06-09T23:55:48.126Z,24.80
2018-06-09T23:58:17.349Z,24.80
